sensor_id;sensor_type;location;lat;lon;timestamp;P1;durP1;ratioP1;P2;durP2;ratioP2
22851;SDS011;11592;45.460;9.240;2023-03-01T00:01:06;52.47;;;27.00;;
22851;SDS011;11592;45.460;9.240;2023-03-01T00:03:34;46.17;;;25.48;;
22851;SDS011;11592;45.460;9.240;2023-03-01T00:06:02;49.70;;;26.13;;
22851;SDS011;11592;45.460;9.240;2023-03-01T00:08:29;52.42;;;26.70;;
22851;SDS011;11592;45.460;9.240;2023-03-01T00:11:10;48.20;;;26.08;;
22851;SDS011;11592;45.460;9.240;2023-03-01T00:13:38;49.83;;;27.35;;
22851;SDS011;11592;45.460;9.240;2023-03-01T00:16:07;56.10;;;27.80;;
22851;SDS011;11592;45.460;9.240;2023-03-01T00:18:37;52.95;;;26.67;;
22851;SDS011;11592;45.460;9.240;2023-03-01T00:21:03;49.17;;;25.80;;
22851;SDS011;11592;45.460;9.240;2023-03-01T00:23:30;55.20;;;26.70;;
22851;SDS011;11592;45.460;9.240;2023-03-01T00:25:59;49.42;;;26.45;;
22851;SDS011;11592;45.460;9.240;2023-03-01T00:28:26;47.42;;;25.95;;
22851;SDS011;11592;45.460;9.240;2023-03-01T00:30:53;50.15;;;27.60;;
22851;SDS011;11592;45.460;9.240;2023-03-01T00:33:20;52.80;;;26.65;;
22851;SDS011;11592;45.460;9.240;2023-03-01T00:35:47;48.97;;;26.25;;
22851;SDS011;11592;45.460;9.240;2023-03-01T00:38:14;51.40;;;26.85;;
22851;SDS011;11592;45.460;9.240;2023-03-01T00:40:40;55.22;;;27.27;;
22851;SDS011;11592;45.460;9.240;2023-03-01T00:43:07;45.28;;;25.23;;
22851;SDS011;11592;45.460;9.240;2023-03-01T00:45:34;48.13;;;24.98;;
22851;SDS011;11592;45.460;9.240;2023-03-01T00:48:01;53.17;;;25.52;;
22851;SDS011;11592;45.460;9.240;2023-03-01T00:50:28;49.30;;;26.58;;
22851;SDS011;11592;45.460;9.240;2023-03-01T00:52:55;47.40;;;26.00;;
22851;SDS011;11592;45.460;9.240;2023-03-01T00:55:22;48.78;;;25.70;;
22851;SDS011;11592;45.460;9.240;2023-03-01T00:57:50;50.78;;;24.73;;
22851;SDS011;11592;45.460;9.240;2023-03-01T01:00:17;48.75;;;26.60;;
22851;SDS011;11592;45.460;9.240;2023-03-01T01:02:45;45.38;;;24.77;;
22851;SDS011;11592;45.460;9.240;2023-03-01T01:05:13;47.22;;;26.08;;
22851;SDS011;11592;45.460;9.240;2023-03-01T01:07:40;49.47;;;26.77;;
22851;SDS011;11592;45.460;9.240;2023-03-01T01:10:07;45.58;;;25.27;;
22851;SDS011;11592;45.460;9.240;2023-03-01T01:12:38;53.17;;;25.60;;
22851;SDS011;11592;45.460;9.240;2023-03-01T01:15:05;46.80;;;24.88;;
22851;SDS011;11592;45.460;9.240;2023-03-01T01:17:33;49.00;;;25.75;;
22851;SDS011;11592;45.460;9.240;2023-03-01T01:19:59;44.63;;;24.73;;
22851;SDS011;11592;45.460;9.240;2023-03-01T01:22:26;46.05;;;24.90;;
22851;SDS011;11592;45.460;9.240;2023-03-01T01:24:53;49.83;;;25.85;;
22851;SDS011;11592;45.460;9.240;2023-03-01T01:27:20;55.47;;;26.42;;
22851;SDS011;11592;45.460;9.240;2023-03-01T01:29:47;49.53;;;25.45;;
22851;SDS011;11592;45.460;9.240;2023-03-01T01:32:13;55.47;;;26.38;;
22851;SDS011;11592;45.460;9.240;2023-03-01T01:34:40;47.30;;;25.80;;
22851;SDS011;11592;45.460;9.240;2023-03-01T01:37:07;44.92;;;24.38;;
22851;SDS011;11592;45.460;9.240;2023-03-01T01:39:34;50.33;;;26.67;;
22851;SDS011;11592;45.460;9.240;2023-03-01T01:42:01;46.70;;;24.45;;
22851;SDS011;11592;45.460;9.240;2023-03-01T01:44:29;43.58;;;23.67;;
22851;SDS011;11592;45.460;9.240;2023-03-01T01:47:05;47.50;;;25.20;;
22851;SDS011;11592;45.460;9.240;2023-03-01T01:49:38;43.83;;;23.67;;
22851;SDS011;11592;45.460;9.240;2023-03-01T01:52:10;46.67;;;23.88;;
22851;SDS011;11592;45.460;9.240;2023-03-01T01:57:42;45.65;;;24.33;;
22851;SDS011;11592;45.460;9.240;2023-03-01T02:00:12;49.30;;;24.08;;
22851;SDS011;11592;45.460;9.240;2023-03-01T02:02:41;44.08;;;23.92;;
22851;SDS011;11592;45.460;9.240;2023-03-01T02:05:25;50.03;;;25.05;;
22851;SDS011;11592;45.460;9.240;2023-03-01T02:07:55;47.25;;;25.02;;
22851;SDS011;11592;45.460;9.240;2023-03-01T02:10:24;47.65;;;24.40;;
22851;SDS011;11592;45.460;9.240;2023-03-01T02:12:53;46.97;;;24.35;;
22851;SDS011;11592;45.460;9.240;2023-03-01T02:15:20;47.92;;;25.20;;
22851;SDS011;11592;45.460;9.240;2023-03-01T02:17:47;45.53;;;24.20;;
22851;SDS011;11592;45.460;9.240;2023-03-01T02:23:13;46.50;;;24.58;;
22851;SDS011;11592;45.460;9.240;2023-03-01T02:30:42;48.58;;;24.70;;
22851;SDS011;11592;45.460;9.240;2023-03-01T02:33:29;47.45;;;24.83;;
22851;SDS011;11592;45.460;9.240;2023-03-01T02:36:00;48.42;;;25.10;;
22851;SDS011;11592;45.460;9.240;2023-03-01T02:38:29;44.90;;;24.65;;
22851;SDS011;11592;45.460;9.240;2023-03-01T02:40:57;51.50;;;24.75;;
22851;SDS011;11592;45.460;9.240;2023-03-01T02:43:26;47.45;;;23.48;;
22851;SDS011;11592;45.460;9.240;2023-03-01T02:46:02;48.60;;;25.33;;
22851;SDS011;11592;45.460;9.240;2023-03-01T02:48:42;47.55;;;24.33;;
22851;SDS011;11592;45.460;9.240;2023-03-01T02:51:31;47.58;;;24.75;;
22851;SDS011;11592;45.460;9.240;2023-03-01T02:57:28;46.83;;;24.38;;
22851;SDS011;11592;45.460;9.240;2023-03-01T02:59:57;43.92;;;24.30;;
22851;SDS011;11592;45.460;9.240;2023-03-01T03:02:33;45.33;;;23.55;;
22851;SDS011;11592;45.460;9.240;2023-03-01T03:05:08;53.55;;;23.92;;
22851;SDS011;11592;45.460;9.240;2023-03-01T03:07:38;47.13;;;23.73;;
22851;SDS011;11592;45.460;9.240;2023-03-01T03:10:08;49.90;;;24.17;;
22851;SDS011;11592;45.460;9.240;2023-03-01T03:12:37;42.15;;;24.08;;
22851;SDS011;11592;45.460;9.240;2023-03-01T03:15:05;44.47;;;24.17;;
22851;SDS011;11592;45.460;9.240;2023-03-01T03:17:38;51.33;;;26.45;;
22851;SDS011;11592;45.460;9.240;2023-03-01T03:20:09;48.45;;;25.20;;
22851;SDS011;11592;45.460;9.240;2023-03-01T03:22:40;47.53;;;24.58;;
22851;SDS011;11592;45.460;9.240;2023-03-01T03:25:07;49.42;;;25.88;;
22851;SDS011;11592;45.460;9.240;2023-03-01T03:27:37;46.00;;;24.25;;
22851;SDS011;11592;45.460;9.240;2023-03-01T03:30:05;44.58;;;23.52;;
22851;SDS011;11592;45.460;9.240;2023-03-01T03:32:38;46.97;;;24.73;;
22851;SDS011;11592;45.460;9.240;2023-03-01T03:35:07;47.08;;;24.02;;
22851;SDS011;11592;45.460;9.240;2023-03-01T03:37:36;44.55;;;24.58;;
22851;SDS011;11592;45.460;9.240;2023-03-01T03:40:22;45.60;;;23.60;;
22851;SDS011;11592;45.460;9.240;2023-03-01T03:42:49;53.38;;;25.25;;
22851;SDS011;11592;45.460;9.240;2023-03-01T03:45:16;49.83;;;24.65;;
22851;SDS011;11592;45.460;9.240;2023-03-01T03:47:44;51.22;;;25.60;;
22851;SDS011;11592;45.460;9.240;2023-03-01T03:50:12;47.13;;;24.38;;
22851;SDS011;11592;45.460;9.240;2023-03-01T03:52:40;48.55;;;25.67;;
22851;SDS011;11592;45.460;9.240;2023-03-01T03:55:07;52.05;;;24.90;;
22851;SDS011;11592;45.460;9.240;2023-03-01T03:57:37;51.92;;;25.30;;
22851;SDS011;11592;45.460;9.240;2023-03-01T04:00:05;46.97;;;25.38;;
22851;SDS011;11592;45.460;9.240;2023-03-01T04:02:42;45.13;;;23.85;;
22851;SDS011;11592;45.460;9.240;2023-03-01T04:05:09;45.63;;;25.05;;
22851;SDS011;11592;45.460;9.240;2023-03-01T04:07:38;46.25;;;24.45;;
22851;SDS011;11592;45.460;9.240;2023-03-01T04:10:05;48.70;;;25.45;;
22851;SDS011;11592;45.460;9.240;2023-03-01T04:12:35;51.35;;;25.33;;
22851;SDS011;11592;45.460;9.240;2023-03-01T04:15:02;45.70;;;24.02;;
22851;SDS011;11592;45.460;9.240;2023-03-01T04:17:43;46.78;;;24.42;;
22851;SDS011;11592;45.460;9.240;2023-03-01T04:20:15;47.17;;;24.35;;
22851;SDS011;11592;45.460;9.240;2023-03-01T04:22:43;44.80;;;23.58;;
22851;SDS011;11592;45.460;9.240;2023-03-01T04:25:13;48.10;;;25.48;;
22851;SDS011;11592;45.460;9.240;2023-03-01T04:27:40;47.35;;;24.63;;
22851;SDS011;11592;45.460;9.240;2023-03-01T04:30:07;52.22;;;25.17;;
22851;SDS011;11592;45.460;9.240;2023-03-01T04:32:34;47.97;;;25.20;;
22851;SDS011;11592;45.460;9.240;2023-03-01T04:35:01;43.95;;;24.38;;
22851;SDS011;11592;45.460;9.240;2023-03-01T04:37:28;48.05;;;24.45;;
22851;SDS011;11592;45.460;9.240;2023-03-01T04:39:55;48.38;;;25.27;;
22851;SDS011;11592;45.460;9.240;2023-03-01T04:42:22;47.00;;;24.58;;
22851;SDS011;11592;45.460;9.240;2023-03-01T04:44:49;48.15;;;24.10;;
22851;SDS011;11592;45.460;9.240;2023-03-01T04:47:18;51.13;;;25.70;;
22851;SDS011;11592;45.460;9.240;2023-03-01T04:49:45;51.92;;;25.15;;
22851;SDS011;11592;45.460;9.240;2023-03-01T04:52:12;51.78;;;24.40;;
22851;SDS011;11592;45.460;9.240;2023-03-01T04:54:39;48.40;;;24.38;;
22851;SDS011;11592;45.460;9.240;2023-03-01T04:57:05;47.80;;;25.20;;
22851;SDS011;11592;45.460;9.240;2023-03-01T04:59:32;49.40;;;25.42;;
22851;SDS011;11592;45.460;9.240;2023-03-01T05:01:59;46.97;;;24.90;;
22851;SDS011;11592;45.460;9.240;2023-03-01T05:04:26;48.75;;;25.40;;
22851;SDS011;11592;45.460;9.240;2023-03-01T05:06:53;50.65;;;25.80;;
22851;SDS011;11592;45.460;9.240;2023-03-01T05:09:20;48.90;;;25.42;;
22851;SDS011;11592;45.460;9.240;2023-03-01T05:11:46;48.33;;;25.92;;
22851;SDS011;11592;45.460;9.240;2023-03-01T05:14:13;45.97;;;24.10;;
22851;SDS011;11592;45.460;9.240;2023-03-01T05:16:40;54.83;;;25.35;;
22851;SDS011;11592;45.460;9.240;2023-03-01T05:19:07;52.70;;;25.38;;
22851;SDS011;11592;45.460;9.240;2023-03-01T05:21:42;47.85;;;23.55;;
22851;SDS011;11592;45.460;9.240;2023-03-01T05:24:28;51.13;;;25.33;;
22851;SDS011;11592;45.460;9.240;2023-03-01T05:26:55;51.17;;;23.60;;
22851;SDS011;11592;45.460;9.240;2023-03-01T05:29:23;51.20;;;25.80;;
22851;SDS011;11592;45.460;9.240;2023-03-01T05:31:52;47.25;;;24.33;;
22851;SDS011;11592;45.460;9.240;2023-03-01T05:34:23;46.22;;;24.58;;
22851;SDS011;11592;45.460;9.240;2023-03-01T05:36:52;51.92;;;24.63;;
22851;SDS011;11592;45.460;9.240;2023-03-01T05:39:23;49.67;;;24.90;;
22851;SDS011;11592;45.460;9.240;2023-03-01T05:41:52;45.33;;;23.77;;
22851;SDS011;11592;45.460;9.240;2023-03-01T05:44:20;51.30;;;25.27;;
22851;SDS011;11592;45.460;9.240;2023-03-01T05:46:47;46.58;;;23.13;;
22851;SDS011;11592;45.460;9.240;2023-03-01T05:49:15;52.85;;;24.63;;
22851;SDS011;11592;45.460;9.240;2023-03-01T05:51:43;46.83;;;23.20;;
22851;SDS011;11592;45.460;9.240;2023-03-01T05:54:14;46.53;;;23.58;;
22851;SDS011;11592;45.460;9.240;2023-03-01T05:56:41;42.83;;;22.90;;
22851;SDS011;11592;45.460;9.240;2023-03-01T05:59:09;48.33;;;22.73;;
22851;SDS011;11592;45.460;9.240;2023-03-01T06:01:36;47.28;;;23.40;;
22851;SDS011;11592;45.460;9.240;2023-03-01T06:04:03;44.42;;;23.02;;
22851;SDS011;11592;45.460;9.240;2023-03-01T06:06:34;46.38;;;23.83;;
22851;SDS011;11592;45.460;9.240;2023-03-01T06:09:06;47.22;;;22.85;;
22851;SDS011;11592;45.460;9.240;2023-03-01T06:11:35;44.80;;;23.85;;
22851;SDS011;11592;45.460;9.240;2023-03-01T06:14:03;47.22;;;22.60;;
22851;SDS011;11592;45.460;9.240;2023-03-01T06:16:32;50.00;;;24.63;;
22851;SDS011;11592;45.460;9.240;2023-03-01T06:18:59;48.83;;;23.10;;
22851;SDS011;11592;45.460;9.240;2023-03-01T06:21:26;41.67;;;21.88;;
22851;SDS011;11592;45.460;9.240;2023-03-01T06:23:52;44.45;;;23.20;;
22851;SDS011;11592;45.460;9.240;2023-03-01T06:26:19;40.97;;;21.77;;
22851;SDS011;11592;45.460;9.240;2023-03-01T06:28:46;40.20;;;21.70;;
22851;SDS011;11592;45.460;9.240;2023-03-01T06:31:13;44.50;;;22.27;;
22851;SDS011;11592;45.460;9.240;2023-03-01T06:33:40;39.90;;;21.90;;
22851;SDS011;11592;45.460;9.240;2023-03-01T06:36:07;43.50;;;21.77;;
22851;SDS011;11592;45.460;9.240;2023-03-01T06:38:35;44.22;;;22.73;;
22851;SDS011;11592;45.460;9.240;2023-03-01T06:41:02;43.30;;;21.35;;
22851;SDS011;11592;45.460;9.240;2023-03-01T06:43:29;46.90;;;21.52;;
22851;SDS011;11592;45.460;9.240;2023-03-01T06:45:55;46.78;;;22.55;;
22851;SDS011;11592;45.460;9.240;2023-03-01T06:48:22;47.15;;;22.80;;
22851;SDS011;11592;45.460;9.240;2023-03-01T06:50:49;45.10;;;22.92;;
22851;SDS011;11592;45.460;9.240;2023-03-01T06:53:16;46.35;;;22.70;;
22851;SDS011;11592;45.460;9.240;2023-03-01T06:55:42;44.72;;;22.05;;
22851;SDS011;11592;45.460;9.240;2023-03-01T06:58:09;42.65;;;22.00;;
22851;SDS011;11592;45.460;9.240;2023-03-01T07:00:37;44.13;;;22.08;;
22851;SDS011;11592;45.460;9.240;2023-03-01T07:03:06;39.08;;;20.40;;
22851;SDS011;11592;45.460;9.240;2023-03-01T07:05:33;44.35;;;21.60;;
22851;SDS011;11592;45.460;9.240;2023-03-01T07:08:00;43.42;;;22.20;;
22851;SDS011;11592;45.460;9.240;2023-03-01T07:10:26;43.20;;;21.15;;
22851;SDS011;11592;45.460;9.240;2023-03-01T07:12:56;49.33;;;22.00;;
22851;SDS011;11592;45.460;9.240;2023-03-01T07:15:25;41.78;;;21.70;;
22851;SDS011;11592;45.460;9.240;2023-03-01T07:17:52;37.53;;;19.67;;
22851;SDS011;11592;45.460;9.240;2023-03-01T07:20:19;33.70;;;18.95;;
22851;SDS011;11592;45.460;9.240;2023-03-01T07:22:54;37.15;;;18.77;;
22851;SDS011;11592;45.460;9.240;2023-03-01T07:25:22;37.90;;;19.20;;
22851;SDS011;11592;45.460;9.240;2023-03-01T07:27:49;36.17;;;18.23;;
22851;SDS011;11592;45.460;9.240;2023-03-01T07:30:17;39.03;;;17.63;;
22851;SDS011;11592;45.460;9.240;2023-03-01T07:32:44;34.30;;;17.05;;
22851;SDS011;11592;45.460;9.240;2023-03-01T07:35:12;38.97;;;19.13;;
22851;SDS011;11592;45.460;9.240;2023-03-01T07:37:39;36.03;;;18.90;;
22851;SDS011;11592;45.460;9.240;2023-03-01T07:40:06;43.15;;;19.42;;
22851;SDS011;11592;45.460;9.240;2023-03-01T07:42:33;32.83;;;18.17;;
22851;SDS011;11592;45.460;9.240;2023-03-01T07:45:00;31.20;;;16.67;;
22851;SDS011;11592;45.460;9.240;2023-03-01T07:47:27;32.63;;;15.93;;
22851;SDS011;11592;45.460;9.240;2023-03-01T07:49:54;31.88;;;16.23;;
22851;SDS011;11592;45.460;9.240;2023-03-01T07:52:20;29.85;;;15.90;;
22851;SDS011;11592;45.460;9.240;2023-03-01T07:54:47;32.63;;;16.10;;
22851;SDS011;11592;45.460;9.240;2023-03-01T07:57:14;31.42;;;15.07;;
22851;SDS011;11592;45.460;9.240;2023-03-01T07:59:41;30.10;;;14.80;;
22851;SDS011;11592;45.460;9.240;2023-03-01T08:02:08;28.85;;;14.50;;
22851;SDS011;11592;45.460;9.240;2023-03-01T08:04:36;27.42;;;13.57;;
22851;SDS011;11592;45.460;9.240;2023-03-01T08:07:04;29.45;;;13.55;;
22851;SDS011;11592;45.460;9.240;2023-03-01T08:09:31;27.42;;;14.02;;
22851;SDS011;11592;45.460;9.240;2023-03-01T08:12:01;26.10;;;13.63;;
22851;SDS011;11592;45.460;9.240;2023-03-01T08:14:27;25.90;;;13.18;;
22851;SDS011;11592;45.460;9.240;2023-03-01T08:16:54;23.20;;;12.48;;
22851;SDS011;11592;45.460;9.240;2023-03-01T08:19:21;23.80;;;12.70;;
22851;SDS011;11592;45.460;9.240;2023-03-01T08:21:48;22.98;;;11.10;;
22851;SDS011;11592;45.460;9.240;2023-03-01T08:24:15;21.05;;;11.15;;
22851;SDS011;11592;45.460;9.240;2023-03-01T08:26:42;23.10;;;12.73;;
22851;SDS011;11592;45.460;9.240;2023-03-01T08:29:09;23.50;;;11.85;;
22851;SDS011;11592;45.460;9.240;2023-03-01T08:31:37;23.48;;;12.60;;
22851;SDS011;11592;45.460;9.240;2023-03-01T08:34:07;22.00;;;12.13;;
22851;SDS011;11592;45.460;9.240;2023-03-01T08:36:37;26.10;;;12.38;;
22851;SDS011;11592;45.460;9.240;2023-03-01T08:39:06;24.83;;;12.02;;
22851;SDS011;11592;45.460;9.240;2023-03-01T08:41:34;23.63;;;12.90;;
22851;SDS011;11592;45.460;9.240;2023-03-01T08:44:01;22.65;;;12.40;;
22851;SDS011;11592;45.460;9.240;2023-03-01T08:46:29;23.27;;;12.57;;
22851;SDS011;11592;45.460;9.240;2023-03-01T08:48:59;24.38;;;12.77;;
22851;SDS011;11592;45.460;9.240;2023-03-01T08:51:26;25.70;;;12.88;;
22851;SDS011;11592;45.460;9.240;2023-03-01T08:53:52;24.00;;;12.73;;
22851;SDS011;11592;45.460;9.240;2023-03-01T08:56:20;27.52;;;13.07;;
22851;SDS011;11592;45.460;9.240;2023-03-01T08:58:47;24.15;;;12.18;;
22851;SDS011;11592;45.460;9.240;2023-03-01T09:01:16;25.92;;;12.52;;
22851;SDS011;11592;45.460;9.240;2023-03-01T09:03:44;24.08;;;12.98;;
22851;SDS011;11592;45.460;9.240;2023-03-01T09:06:12;27.05;;;13.02;;
22851;SDS011;11592;45.460;9.240;2023-03-01T09:08:41;27.00;;;12.07;;
22851;SDS011;11592;45.460;9.240;2023-03-01T09:11:10;24.85;;;12.60;;
22851;SDS011;11592;45.460;9.240;2023-03-01T09:13:39;23.83;;;12.88;;
22851;SDS011;11592;45.460;9.240;2023-03-01T09:16:10;30.20;;;13.88;;
22851;SDS011;11592;45.460;9.240;2023-03-01T09:18:38;26.92;;;14.15;;
22851;SDS011;11592;45.460;9.240;2023-03-01T09:21:13;24.63;;;13.65;;
22851;SDS011;11592;45.460;9.240;2023-03-01T09:26:09;34.28;;;16.83;;
22851;SDS011;11592;45.460;9.240;2023-03-01T09:28:38;33.25;;;17.95;;
22851;SDS011;11592;45.460;9.240;2023-03-01T09:31:07;37.22;;;19.23;;
22851;SDS011;11592;45.460;9.240;2023-03-01T09:33:33;36.05;;;19.73;;
22851;SDS011;11592;45.460;9.240;2023-03-01T09:36:02;38.30;;;19.42;;
22851;SDS011;11592;45.460;9.240;2023-03-01T09:38:31;36.67;;;19.08;;
22851;SDS011;11592;45.460;9.240;2023-03-01T09:40:58;41.33;;;18.45;;
22851;SDS011;11592;45.460;9.240;2023-03-01T09:43:29;32.15;;;18.30;;
22851;SDS011;11592;45.460;9.240;2023-03-01T09:46:03;38.67;;;19.40;;
22851;SDS011;11592;45.460;9.240;2023-03-01T09:48:41;33.05;;;18.55;;
22851;SDS011;11592;45.460;9.240;2023-03-01T09:51:18;33.63;;;18.38;;
22851;SDS011;11592;45.460;9.240;2023-03-01T09:53:51;32.00;;;17.52;;
22851;SDS011;11592;45.460;9.240;2023-03-01T09:56:21;31.52;;;16.73;;
22851;SDS011;11592;45.460;9.240;2023-03-01T09:58:59;35.08;;;17.20;;
22851;SDS011;11592;45.460;9.240;2023-03-01T10:02:09;30.88;;;16.48;;
22851;SDS011;11592;45.460;9.240;2023-03-01T10:04:47;31.48;;;17.33;;
22851;SDS011;11592;45.460;9.240;2023-03-01T10:10:50;39.50;;;17.35;;
22851;SDS011;11592;45.460;9.240;2023-03-01T10:13:17;30.13;;;17.08;;
22851;SDS011;11592;45.460;9.240;2023-03-01T10:15:53;32.78;;;16.92;;
22851;SDS011;11592;45.460;9.240;2023-03-01T10:18:28;31.13;;;15.68;;
22851;SDS011;11592;45.460;9.240;2023-03-01T10:20:59;30.20;;;16.70;;
22851;SDS011;11592;45.460;9.240;2023-03-01T10:23:29;30.98;;;17.60;;
22851;SDS011;11592;45.460;9.240;2023-03-01T10:29:00;32.13;;;17.77;;
22851;SDS011;11592;45.460;9.240;2023-03-01T10:31:38;29.88;;;17.52;;
22851;SDS011;11592;45.460;9.240;2023-03-01T10:34:25;28.98;;;16.42;;
22851;SDS011;11592;45.460;9.240;2023-03-01T10:36:56;35.30;;;17.33;;
22851;SDS011;11592;45.460;9.240;2023-03-01T10:39:36;30.80;;;17.10;;
22851;SDS011;11592;45.460;9.240;2023-03-01T10:42:03;26.17;;;15.93;;
22851;SDS011;11592;45.460;9.240;2023-03-01T10:44:44;32.70;;;17.77;;
22851;SDS011;11592;45.460;9.240;2023-03-01T10:47:14;32.67;;;17.75;;
22851;SDS011;11592;45.460;9.240;2023-03-01T10:49:57;37.20;;;16.60;;
22851;SDS011;11592;45.460;9.240;2023-03-01T10:52:33;31.15;;;15.32;;
22851;SDS011;11592;45.460;9.240;2023-03-01T11:00:21;30.65;;;15.80;;
22851;SDS011;11592;45.460;9.240;2023-03-01T11:05:25;29.15;;;16.25;;
22851;SDS011;11592;45.460;9.240;2023-03-01T11:07:56;31.60;;;15.85;;
22851;SDS011;11592;45.460;9.240;2023-03-01T11:13:36;29.27;;;16.17;;
22851;SDS011;11592;45.460;9.240;2023-03-01T11:15:59;29.77;;;15.73;;
22851;SDS011;11592;45.460;9.240;2023-03-01T11:18:32;30.30;;;17.05;;
22851;SDS011;11592;45.460;9.240;2023-03-01T11:21:13;31.20;;;16.83;;
22851;SDS011;11592;45.460;9.240;2023-03-01T11:23:43;30.42;;;17.08;;
22851;SDS011;11592;45.460;9.240;2023-03-01T11:26:13;34.65;;;17.65;;
22851;SDS011;11592;45.460;9.240;2023-03-01T11:28:41;32.30;;;17.58;;
22851;SDS011;11592;45.460;9.240;2023-03-01T11:31:11;34.75;;;17.17;;
22851;SDS011;11592;45.460;9.240;2023-03-01T11:42:14;31.85;;;16.70;;
22851;SDS011;11592;45.460;9.240;2023-03-01T11:44:46;32.13;;;17.48;;
22851;SDS011;11592;45.460;9.240;2023-03-01T11:49:58;34.20;;;17.67;;
22851;SDS011;11592;45.460;9.240;2023-03-01T12:03:32;33.50;;;16.55;;
22851;SDS011;11592;45.460;9.240;2023-03-01T12:12:05;30.33;;;17.10;;
22851;SDS011;11592;45.460;9.240;2023-03-01T12:22:46;30.70;;;16.77;;
22851;SDS011;11592;45.460;9.240;2023-03-01T12:26:28;31.77;;;16.42;;
22851;SDS011;11592;45.460;9.240;2023-03-01T12:29:02;31.30;;;17.23;;
22851;SDS011;11592;45.460;9.240;2023-03-01T12:31:44;30.40;;;16.48;;
22851;SDS011;11592;45.460;9.240;2023-03-01T12:40:01;36.20;;;17.98;;
22851;SDS011;11592;45.460;9.240;2023-03-01T12:42:53;28.95;;;17.30;;
22851;SDS011;11592;45.460;9.240;2023-03-01T12:45:43;30.20;;;17.52;;
22851;SDS011;11592;45.460;9.240;2023-03-01T12:49:19;32.08;;;17.23;;
22851;SDS011;11592;45.460;9.240;2023-03-01T12:51:31;32.50;;;17.65;;
22851;SDS011;11592;45.460;9.240;2023-03-01T12:54:46;32.30;;;17.85;;
22851;SDS011;11592;45.460;9.240;2023-03-01T12:56:53;30.63;;;17.67;;
22851;SDS011;11592;45.460;9.240;2023-03-01T12:59:44;33.60;;;17.75;;
22851;SDS011;11592;45.460;9.240;2023-03-01T13:02:24;31.13;;;17.25;;
22851;SDS011;11592;45.460;9.240;2023-03-01T13:05:26;33.42;;;17.80;;
22851;SDS011;11592;45.460;9.240;2023-03-01T13:07:58;38.28;;;18.42;;
22851;SDS011;11592;45.460;9.240;2023-03-01T13:15:37;36.78;;;18.40;;
22851;SDS011;11592;45.460;9.240;2023-03-01T13:23:10;33.38;;;18.92;;
22851;SDS011;11592;45.460;9.240;2023-03-01T13:26:19;34.50;;;18.63;;
22851;SDS011;11592;45.460;9.240;2023-03-01T13:28:44;36.92;;;17.50;;
22851;SDS011;11592;45.460;9.240;2023-03-01T13:33:49;34.53;;;17.63;;
22851;SDS011;11592;45.460;9.240;2023-03-01T13:39:03;30.88;;;17.20;;
22851;SDS011;11592;45.460;9.240;2023-03-01T13:47:07;32.58;;;17.30;;
22851;SDS011;11592;45.460;9.240;2023-03-01T13:49:47;34.95;;;17.95;;
22851;SDS011;11592;45.460;9.240;2023-03-01T13:55:32;30.67;;;17.70;;
22851;SDS011;11592;45.460;9.240;2023-03-01T13:58:46;31.08;;;18.42;;
22851;SDS011;11592;45.460;9.240;2023-03-01T14:01:23;32.25;;;17.85;;
22851;SDS011;11592;45.460;9.240;2023-03-01T14:03:53;35.53;;;17.50;;
22851;SDS011;11592;45.460;9.240;2023-03-01T14:06:21;31.92;;;17.70;;
22851;SDS011;11592;45.460;9.240;2023-03-01T14:08:51;37.80;;;18.95;;
22851;SDS011;11592;45.460;9.240;2023-03-01T14:19:36;31.48;;;17.92;;
22851;SDS011;11592;45.460;9.240;2023-03-01T14:24:49;33.78;;;17.98;;
22851;SDS011;11592;45.460;9.240;2023-03-01T14:27:18;38.38;;;20.20;;
22851;SDS011;11592;45.460;9.240;2023-03-01T14:29:59;37.42;;;19.30;;
22851;SDS011;11592;45.460;9.240;2023-03-01T14:32:28;34.60;;;19.15;;
22851;SDS011;11592;45.460;9.240;2023-03-01T14:34:58;34.60;;;18.75;;
22851;SDS011;11592;45.460;9.240;2023-03-01T14:37:29;37.10;;;19.10;;
22851;SDS011;11592;45.460;9.240;2023-03-01T14:39:59;43.20;;;19.23;;
22851;SDS011;11592;45.460;9.240;2023-03-01T14:42:28;36.47;;;19.77;;
22851;SDS011;11592;45.460;9.240;2023-03-01T14:44:57;36.25;;;20.05;;
22851;SDS011;11592;45.460;9.240;2023-03-01T14:47:34;36.00;;;19.30;;
22851;SDS011;11592;45.460;9.240;2023-03-01T14:52:50;34.25;;;19.27;;
22851;SDS011;11592;45.460;9.240;2023-03-01T14:55:30;41.03;;;20.40;;
22851;SDS011;11592;45.460;9.240;2023-03-01T14:58:03;38.80;;;21.30;;
22851;SDS011;11592;45.460;9.240;2023-03-01T15:00:33;35.28;;;18.95;;
22851;SDS011;11592;45.460;9.240;2023-03-01T15:03:04;38.03;;;19.40;;
22851;SDS011;11592;45.460;9.240;2023-03-01T15:05:40;38.60;;;19.50;;
22851;SDS011;11592;45.460;9.240;2023-03-01T15:08:13;35.75;;;18.60;;
22851;SDS011;11592;45.460;9.240;2023-03-01T15:10:56;34.45;;;18.90;;
22851;SDS011;11592;45.460;9.240;2023-03-01T15:13:29;36.72;;;19.55;;
22851;SDS011;11592;45.460;9.240;2023-03-01T15:16:02;39.00;;;20.95;;
22851;SDS011;11592;45.460;9.240;2023-03-01T15:18:35;40.75;;;18.90;;
22851;SDS011;11592;45.460;9.240;2023-03-01T15:21:19;34.53;;;18.80;;
22851;SDS011;11592;45.460;9.240;2023-03-01T15:23:54;37.58;;;19.80;;
22851;SDS011;11592;45.460;9.240;2023-03-01T15:29:28;37.05;;;19.73;;
22851;SDS011;11592;45.460;9.240;2023-03-01T15:32:59;33.38;;;18.58;;
22851;SDS011;11592;45.460;9.240;2023-03-01T15:34:55;38.60;;;18.92;;
22851;SDS011;11592;45.460;9.240;2023-03-01T15:40:20;37.33;;;20.67;;
22851;SDS011;11592;45.460;9.240;2023-03-01T15:42:58;36.85;;;19.10;;
22851;SDS011;11592;45.460;9.240;2023-03-01T15:45:25;35.13;;;19.52;;
22851;SDS011;11592;45.460;9.240;2023-03-01T15:48:00;36.35;;;19.05;;
22851;SDS011;11592;45.460;9.240;2023-03-01T15:50:30;37.15;;;19.58;;
22851;SDS011;11592;45.460;9.240;2023-03-01T15:53:06;36.92;;;19.15;;
22851;SDS011;11592;45.460;9.240;2023-03-01T15:58:15;38.05;;;19.58;;
22851;SDS011;11592;45.460;9.240;2023-03-01T16:00:44;33.97;;;18.23;;
22851;SDS011;11592;45.460;9.240;2023-03-01T16:03:26;34.53;;;18.65;;
22851;SDS011;11592;45.460;9.240;2023-03-01T16:05:54;33.05;;;18.65;;
22851;SDS011;11592;45.460;9.240;2023-03-01T16:08:21;34.30;;;18.73;;
22851;SDS011;11592;45.460;9.240;2023-03-01T16:10:48;34.15;;;18.00;;
22851;SDS011;11592;45.460;9.240;2023-03-01T16:13:17;38.55;;;19.08;;
22851;SDS011;11592;45.460;9.240;2023-03-01T16:15:44;35.83;;;19.17;;
22851;SDS011;11592;45.460;9.240;2023-03-01T16:18:11;36.83;;;18.95;;
22851;SDS011;11592;45.460;9.240;2023-03-01T16:20:38;36.38;;;18.95;;
22851;SDS011;11592;45.460;9.240;2023-03-01T16:23:06;36.38;;;18.80;;
22851;SDS011;11592;45.460;9.240;2023-03-01T16:25:36;37.78;;;19.45;;
22851;SDS011;11592;45.460;9.240;2023-03-01T16:28:03;36.97;;;19.10;;
22851;SDS011;11592;45.460;9.240;2023-03-01T16:30:35;33.63;;;17.75;;
22851;SDS011;11592;45.460;9.240;2023-03-01T16:33:06;31.73;;;17.90;;
22851;SDS011;11592;45.460;9.240;2023-03-01T16:35:54;34.15;;;18.13;;
22851;SDS011;11592;45.460;9.240;2023-03-01T16:38:22;39.80;;;19.30;;
22851;SDS011;11592;45.460;9.240;2023-03-01T16:40:49;31.85;;;18.10;;
22851;SDS011;11592;45.460;9.240;2023-03-01T16:43:17;35.70;;;19.25;;
22851;SDS011;11592;45.460;9.240;2023-03-01T16:45:44;39.60;;;19.38;;